Wakefield, New Hampshire
Current Conditions -  °F | °C
As of 4:55 PM on Saturday 25 Oct 2014 (Local Time) from KSFM Reporting Station
Clear Clear  
Wind Chill: 61°   Ceiling: Unl
Heat Index: 61°   Visibility: 10mi
Dew Point: 36°   Wind: 8mph
Humidity: 39%   Direction: 240°WSW
Pressure: 29.56"   Gusts: NA
Location:  43.5632°N, 71.0133°W
Report Text: KSFM 252055Z AUTO 24007KT 10SM CLR 16/02 A2956 RMK AO1 57017
Loading
Personal Weather Stations






























Interactive Weather Map
Tropical Storm Tracking
New forecast layout! Learn more

10-Day Weather Forecast

Advertisements
Track Severe Weather on mobile